createdAt,value
2018-06-23T00:02:18.402Z,96256.00
2018-06-23T00:04:48.269Z,96251.00
2018-06-23T00:07:18.121Z,96255.00
2018-06-23T00:09:47.540Z,96248.00
2018-06-23T00:12:17.162Z,96246.00
2018-06-23T00:14:46.714Z,96245.00
2018-06-23T00:17:16.442Z,96245.00
2018-06-23T00:19:45.848Z,96242.00
2018-06-23T00:22:20.202Z,96239.00
2018-06-23T00:24:49.914Z,96243.00
2018-06-23T00:27:20.094Z,96240.00
2018-06-23T00:29:49.540Z,96248.00
2018-06-23T00:32:19.074Z,96242.00
2018-06-23T00:34:48.986Z,96240.00
2018-06-23T00:37:19.752Z,96232.00
2018-06-23T00:39:49.141Z,96236.00
2018-06-23T00:42:19.907Z,96239.00
2018-06-23T00:44:49.396Z,96234.00
2018-06-23T00:47:18.943Z,96231.00
2018-06-23T00:49:48.673Z,96233.00
2018-06-23T00:52:18.119Z,96235.00
2018-06-23T00:54:52.031Z,96236.00
2018-06-23T00:57:26.398Z,96236.00
2018-06-23T01:00:00.013Z,96227.00
2018-06-23T01:02:29.477Z,96236.00
2018-06-23T01:04:58.577Z,96227.00
2018-06-23T01:07:27.999Z,96229.00
2018-06-23T01:09:57.495Z,96232.00
2018-06-23T01:12:27.490Z,96229.00
2018-06-23T01:14:56.585Z,96229.00
2018-06-23T01:17:25.745Z,96219.00
2018-06-23T01:19:55.133Z,96220.00
2018-06-23T01:22:24.656Z,96234.00
2018-06-23T01:24:54.035Z,96222.00
2018-06-23T01:27:23.456Z,96228.00
2018-06-23T01:29:52.774Z,96221.00
2018-06-23T01:32:22.157Z,96230.00
2018-06-23T01:34:51.505Z,96228.00
2018-06-23T01:37:20.908Z,96233.00
2018-06-23T01:39:49.942Z,96232.00
2018-06-23T01:42:19.403Z,96231.00
2018-06-23T01:44:49.274Z,96221.00
2018-06-23T01:47:20.258Z,96222.00
2018-06-23T01:49:49.556Z,96227.00
2018-06-23T01:52:18.917Z,96206.00
2018-06-23T01:54:48.396Z,96203.00
2018-06-23T01:57:18.309Z,96206.00
2018-06-23T01:59:48.626Z,96207.00
2018-06-23T02:02:18.406Z,96197.00
2018-06-23T02:04:47.540Z,96197.00
2018-06-23T02:07:17.663Z,96197.00
2018-06-23T02:09:47.334Z,96206.00
2018-06-23T02:12:16.424Z,96198.00
2018-06-23T02:14:51.249Z,96203.00
2018-06-23T02:17:25.689Z,96205.00
2018-06-23T02:19:59.982Z,96202.00
2018-06-23T02:22:35.203Z,96210.00
2018-06-23T02:25:10.695Z,96201.00
2018-06-23T02:27:45.035Z,96202.00
2018-06-23T02:30:19.647Z,96201.00
2018-06-23T02:32:53.021Z,96198.00
2018-06-23T02:35:22.665Z,96191.00
2018-06-23T02:37:57.023Z,96194.00
2018-06-23T02:40:27.817Z,96189.00
2018-06-23T02:42:58.106Z,96185.00
2018-06-23T02:45:29.678Z,96188.00
2018-06-23T02:47:59.110Z,96180.00
2018-06-23T02:50:28.566Z,96186.00
2018-06-23T02:52:57.933Z,96180.00
2018-06-23T02:55:27.915Z,96190.00
2018-06-23T02:57:57.386Z,96184.00
2018-06-23T03:00:26.760Z,96189.00
2018-06-23T03:02:56.078Z,96187.00
2018-06-23T03:05:25.607Z,96186.00
2018-06-23T03:07:54.673Z,96185.00
2018-06-23T03:10:24.053Z,96182.00
2018-06-23T03:12:53.407Z,96191.00
2018-06-23T03:15:22.709Z,96177.00
2018-06-23T03:17:52.819Z,96180.00
2018-06-23T03:20:23.422Z,96182.00
2018-06-23T03:22:52.776Z,96185.00
2018-06-23T03:25:22.697Z,96194.00
2018-06-23T03:27:52.155Z,96187.00
2018-06-23T03:30:22.131Z,96199.00
2018-06-23T03:32:51.591Z,96193.00
2018-06-23T03:35:22.401Z,96198.00
2018-06-23T03:37:51.789Z,96185.00
2018-06-23T03:40:21.577Z,96185.00
2018-06-23T03:42:50.952Z,96198.00
2018-06-23T03:45:20.317Z,96192.00
2018-06-23T03:47:50.325Z,96194.00
2018-06-23T03:50:19.765Z,96198.00
2018-06-23T03:52:49.191Z,96196.00
2018-06-23T03:55:18.674Z,96192.00
2018-06-23T03:57:48.073Z,96202.00
2018-06-23T04:00:17.252Z,96202.00
2018-06-23T04:02:46.751Z,96203.00
2018-06-23T04:05:16.044Z,96217.00
2018-06-23T04:07:46.026Z,96209.00
2018-06-23T04:10:15.414Z,96202.00
2018-06-23T04:12:45.361Z,96204.00
2018-06-23T04:15:15.444Z,96196.00
2018-06-23T04:17:44.806Z,96206.00
2018-06-23T04:20:14.237Z,96194.00
2018-06-23T04:22:43.566Z,96192.00
2018-06-23T04:25:13.494Z,96190.00
2018-06-23T04:27:42.838Z,96200.00
2018-06-23T04:30:12.626Z,96196.00
2018-06-23T04:32:42.022Z,96194.00
2018-06-23T04:35:11.376Z,96193.00
2018-06-23T04:37:40.690Z,96195.00
2018-06-23T04:40:09.992Z,96194.00
2018-06-23T04:42:40.114Z,96206.00
2018-06-23T04:45:09.464Z,96204.00
2018-06-23T04:47:38.940Z,96206.00
2018-06-23T04:50:08.476Z,96209.00
2018-06-23T04:52:44.266Z,96207.00
2018-06-23T04:55:14.978Z,96202.00
2018-06-23T04:57:45.102Z,96195.00
2018-06-23T05:00:15.119Z,96209.00
2018-06-23T05:02:44.207Z,96194.00
2018-06-23T05:05:24.895Z,96204.00
2018-06-23T05:07:56.290Z,96202.00
2018-06-23T05:10:26.425Z,96207.00
2018-06-23T05:12:59.413Z,96204.00
2018-06-23T05:15:31.315Z,96211.00
2018-06-23T05:18:08.673Z,96208.00
2018-06-23T05:20:38.887Z,96214.00
2018-06-23T05:23:17.489Z,96212.00
2018-06-23T05:25:50.990Z,96214.00
2018-06-23T05:28:21.701Z,96213.00
2018-06-23T05:30:52.621Z,96217.00
2018-06-23T05:33:23.024Z,96219.00
2018-06-23T05:35:53.134Z,96216.00
2018-06-23T05:38:24.423Z,96204.00
2018-06-23T05:40:53.821Z,96208.00
2018-06-23T05:43:24.186Z,96205.00
2018-06-23T05:45:53.639Z,96198.00
2018-06-23T05:48:22.997Z,96208.00
2018-06-23T05:50:52.365Z,96198.00
2018-06-23T05:53:22.412Z,96206.00
2018-06-23T05:55:57.066Z,96209.00
2018-06-23T05:58:28.076Z,96211.00
2018-06-23T06:01:02.218Z,96202.00
2018-06-23T06:03:31.284Z,96204.00
2018-06-23T06:06:01.438Z,96210.00
2018-06-23T06:08:30.846Z,96208.00
2018-06-23T06:11:00.266Z,96201.00
2018-06-23T06:13:30.359Z,96209.00
2018-06-23T06:15:59.828Z,96210.00
2018-06-23T06:18:29.370Z,96210.00
2018-06-23T06:20:58.839Z,96211.00
2018-06-23T06:23:28.899Z,96209.00
2018-06-23T06:26:02.936Z,96212.00
2018-06-23T06:28:33.955Z,96213.00
2018-06-23T06:31:05.223Z,96215.00
2018-06-23T06:33:34.845Z,96202.00
2018-06-23T06:36:05.883Z,96205.00
2018-06-23T06:38:35.416Z,96212.00
2018-06-23T06:41:04.864Z,96211.00
2018-06-23T06:43:34.253Z,96196.00
2018-06-23T06:46:03.648Z,96206.00
2018-06-23T06:48:34.356Z,96208.00
2018-06-23T06:51:04.686Z,96211.00
2018-06-23T06:53:34.729Z,96208.00
2018-06-23T06:56:05.605Z,96205.00
2018-06-23T06:58:41.230Z,96206.00
2018-06-23T07:01:11.086Z,96199.00
2018-06-23T07:03:40.576Z,96193.00
2018-06-23T07:06:10.041Z,96194.00
2018-06-23T07:08:39.414Z,96186.00
2018-06-23T07:11:08.885Z,96193.00
2018-06-23T07:13:38.614Z,96193.00
2018-06-23T07:16:08.469Z,96192.00
2018-06-23T07:18:39.350Z,96204.00
2018-06-23T07:21:10.571Z,96205.00
2018-06-23T07:23:40.226Z,96204.00
2018-06-23T07:26:10.673Z,96192.00
2018-06-23T07:28:40.123Z,96188.00
2018-06-23T07:31:10.813Z,96186.00
2018-06-23T07:33:41.087Z,96176.00
2018-06-23T07:36:10.692Z,96184.00
2018-06-23T07:38:40.133Z,96192.00
2018-06-23T07:41:09.959Z,96180.00
2018-06-23T07:43:39.425Z,96179.00
2018-06-23T07:46:09.397Z,96188.00
2018-06-23T07:48:38.899Z,96175.00
2018-06-23T07:51:08.316Z,96173.00
2018-06-23T07:53:38.561Z,96186.00
2018-06-23T07:56:08.664Z,96177.00
2018-06-23T07:58:39.531Z,96179.00
2018-06-23T08:01:10.940Z,96184.00
2018-06-23T08:03:40.436Z,96177.00
2018-06-23T08:06:09.865Z,96177.00
2018-06-23T08:08:44.538Z,96175.00
2018-06-23T08:11:14.083Z,96175.00
2018-06-23T08:13:44.227Z,96178.00
2018-06-23T08:16:14.522Z,96179.00
2018-06-23T08:18:45.052Z,96171.00
2018-06-23T08:21:14.460Z,96161.00
2018-06-23T08:23:43.855Z,96171.00
2018-06-23T08:26:14.128Z,96175.00
2018-06-23T08:28:43.562Z,96169.00
2018-06-23T08:31:13.204Z,96160.00
2018-06-23T08:33:42.548Z,96163.00
2018-06-23T08:36:12.053Z,96167.00
2018-06-23T08:38:41.778Z,96172.00
2018-06-23T08:41:12.180Z,96167.00
2018-06-23T08:43:41.605Z,96164.00
2018-06-23T08:46:11.040Z,96156.00
2018-06-23T08:48:40.538Z,96158.00
2018-06-23T08:51:10.008Z,96159.00
2018-06-23T08:53:39.575Z,96157.00
2018-06-23T08:56:09.023Z,96157.00
2018-06-23T08:58:39.276Z,96160.00
2018-06-23T09:01:08.909Z,96153.00
2018-06-23T09:03:38.657Z,96143.00
2018-06-23T09:06:08.244Z,96144.00
2018-06-23T09:08:44.802Z,96142.00
2018-06-23T09:11:14.141Z,96143.00
2018-06-23T09:13:44.276Z,96144.00
2018-06-23T09:16:17.029Z,96148.00
2018-06-23T09:18:46.701Z,96145.00
2018-06-23T09:21:16.343Z,96142.00
2018-06-23T09:23:47.237Z,96138.00
2018-06-23T09:26:16.767Z,96135.00
2018-06-23T09:28:46.585Z,96138.00
2018-06-23T09:31:16.362Z,96130.00
2018-06-23T09:33:45.849Z,96135.00
2018-06-23T09:36:18.674Z,96132.00
2018-06-23T09:38:48.165Z,96124.00
2018-06-23T09:41:18.381Z,96129.00
2018-06-23T09:43:47.859Z,96134.00
2018-06-23T09:46:17.346Z,96123.00
2018-06-23T09:48:47.089Z,96135.00
2018-06-23T09:51:16.498Z,96129.00
2018-06-23T09:53:45.613Z,96126.00
2018-06-23T09:56:15.766Z,96135.00
2018-06-23T09:58:47.090Z,96136.00
2018-06-23T10:01:17.178Z,96139.00
2018-06-23T10:03:46.658Z,96129.00
2018-06-23T10:06:16.289Z,96132.00
2018-06-23T10:08:45.962Z,96129.00
2018-06-23T10:11:15.420Z,96124.00
2018-06-23T10:13:44.950Z,96133.00
2018-06-23T10:16:14.402Z,96130.00
2018-06-23T10:18:44.912Z,96123.00
2018-06-23T10:21:14.316Z,96123.00
2018-06-23T10:23:44.251Z,96124.00
2018-06-23T10:26:13.600Z,96128.00
2018-06-23T10:28:42.923Z,96120.00
2018-06-23T10:31:12.443Z,96113.00
2018-06-23T10:33:42.034Z,96110.00
2018-06-23T10:36:11.433Z,96115.00
2018-06-23T10:38:40.795Z,96108.00
2018-06-23T10:41:09.894Z,96105.00
2018-06-23T10:43:39.475Z,96108.00
2018-06-23T10:46:08.977Z,96114.00
2018-06-23T10:48:38.397Z,96099.00
2018-06-23T10:51:08.475Z,96102.00
2018-06-23T10:53:37.973Z,96107.00
2018-06-23T10:56:07.615Z,96101.00
2018-06-23T10:58:36.991Z,96109.00
2018-06-23T11:01:06.693Z,96105.00
2018-06-23T11:03:36.224Z,96099.00
2018-06-23T11:06:05.379Z,96098.00
2018-06-23T11:08:34.770Z,96100.00
2018-06-23T11:11:04.222Z,96093.00
2018-06-23T11:13:33.651Z,96100.00
2018-06-23T11:16:02.989Z,96101.00
2018-06-23T11:18:32.420Z,96100.00
2018-06-23T11:21:01.862Z,96100.00
2018-06-23T11:23:31.600Z,96104.00
2018-06-23T11:26:01.010Z,96104.00
2018-06-23T11:28:35.464Z,96092.00
2018-06-23T11:31:04.888Z,96089.00
2018-06-23T11:33:35.111Z,96093.00
2018-06-23T11:36:05.278Z,96084.00
2018-06-23T11:38:34.670Z,96093.00
2018-06-23T11:41:04.983Z,96093.00
2018-06-23T11:43:35.450Z,96089.00
2018-06-23T11:46:06.016Z,96085.00
2018-06-23T11:48:35.457Z,96091.00
2018-06-23T11:51:05.542Z,96082.00
2018-06-23T11:53:34.956Z,96076.00
2018-06-23T11:56:04.474Z,96076.00
2018-06-23T11:58:33.880Z,96076.00
2018-06-23T12:01:03.400Z,96069.00
2018-06-23T12:03:33.371Z,96063.00
2018-06-23T12:06:02.495Z,96064.00
2018-06-23T12:08:32.568Z,96067.00
2018-06-23T12:11:01.945Z,96069.00
2018-06-23T12:13:31.299Z,96072.00
2018-06-23T12:16:00.676Z,96066.00
2018-06-23T12:18:30.069Z,96061.00
2018-06-23T12:20:59.603Z,96056.00
2018-06-23T12:23:29.561Z,96059.00
2018-06-23T12:25:59.852Z,96054.00
2018-06-23T12:28:29.888Z,96056.00
2018-06-23T12:30:59.343Z,96058.00
2018-06-23T12:33:28.461Z,96039.00
2018-06-23T12:35:57.938Z,96052.00
2018-06-23T12:38:27.339Z,96053.00
2018-06-23T12:40:56.849Z,96035.00
2018-06-23T12:43:26.700Z,96038.00
2018-06-23T12:45:56.078Z,96041.00
2018-06-23T12:48:25.475Z,96037.00
2018-06-23T12:50:54.856Z,96040.00
2018-06-23T12:53:25.267Z,96039.00
2018-06-23T12:55:54.717Z,96026.00
2018-06-23T12:58:24.061Z,96032.00
2018-06-23T13:00:53.438Z,96021.00
2018-06-23T13:03:22.858Z,96018.00
2018-06-23T13:05:52.314Z,96013.00
2018-06-23T13:08:21.674Z,96023.00
2018-06-23T13:10:51.170Z,96015.00
2018-06-23T13:13:20.484Z,96004.00
2018-06-23T13:15:49.837Z,96012.00
2018-06-23T13:18:18.947Z,96012.00
2018-06-23T13:20:48.978Z,96001.00
2018-06-23T13:26:18.964Z,96000.00
2018-06-23T13:28:48.470Z,96014.00
2018-06-23T13:31:17.717Z,96009.00
2018-06-23T13:33:47.239Z,96001.00
2018-06-23T13:36:16.785Z,96008.00
2018-06-23T13:38:46.361Z,96015.00
2018-06-23T13:41:15.785Z,96016.00
2018-06-23T13:43:45.169Z,96006.00
2018-06-23T13:46:14.729Z,96000.00
2018-06-23T13:48:44.214Z,95999.00
2018-06-23T13:51:13.620Z,95990.00
2018-06-23T13:53:43.182Z,95980.00
2018-06-23T13:56:12.568Z,95987.00
2018-06-23T13:58:42.451Z,95990.00
2018-06-23T14:01:11.945Z,95990.00
2018-06-23T14:03:41.362Z,95995.00
2018-06-23T14:06:11.414Z,95993.00
2018-06-23T14:08:41.347Z,95989.00
2018-06-23T14:11:10.871Z,95982.00
2018-06-23T14:13:40.359Z,95986.00
2018-06-23T14:16:10.413Z,95987.00
2018-06-23T14:18:39.835Z,95981.00
2018-06-23T14:21:09.357Z,95982.00
2018-06-23T14:23:38.836Z,95995.00
2018-06-23T14:26:08.290Z,95992.00
2018-06-23T14:28:37.739Z,95993.00
2018-06-23T14:31:07.709Z,96004.00
2018-06-23T14:33:37.131Z,95992.00
2018-06-23T14:36:06.635Z,95987.00
2018-06-23T14:38:36.178Z,95996.00
2018-06-23T14:41:05.651Z,95997.00
2018-06-23T14:43:35.101Z,95994.00
2018-06-23T14:46:04.865Z,95990.00
2018-06-23T14:48:34.304Z,95987.00
2018-06-23T14:51:04.418Z,95996.00
2018-06-23T14:53:33.824Z,95987.00
2018-06-23T14:56:03.868Z,95993.00
2018-06-23T14:58:33.384Z,95989.00
2018-06-23T15:01:02.849Z,95983.00
2018-06-23T15:03:32.260Z,95991.00
2018-06-23T15:06:06.350Z,95985.00
2018-06-23T15:08:52.556Z,95986.00
2018-06-23T15:12:41.057Z,95999.00
2018-06-23T15:15:10.570Z,95992.00
2018-06-23T15:17:40.346Z,95988.00
2018-06-23T15:20:09.710Z,95987.00
2018-06-23T15:22:41.410Z,95985.00
2018-06-23T15:25:11.487Z,95986.00
2018-06-23T15:27:42.794Z,95997.00
2018-06-23T15:30:13.466Z,95985.00
2018-06-23T15:32:44.067Z,95993.00
2018-06-23T15:35:13.697Z,95989.00
2018-06-23T15:37:43.963Z,95984.00
2018-06-23T15:40:13.411Z,95993.00
2018-06-23T15:42:42.869Z,95984.00
2018-06-23T15:45:12.371Z,95994.00
2018-06-23T15:47:41.871Z,95988.00
2018-06-23T15:50:11.379Z,95986.00
2018-06-23T15:52:40.859Z,95993.00
2018-06-23T15:55:11.755Z,95986.00
2018-06-23T15:57:41.731Z,95993.00
2018-06-23T16:00:11.568Z,95986.00
2018-06-23T16:02:44.207Z,95992.00
2018-06-23T16:05:13.685Z,95996.00
2018-06-23T16:07:45.875Z,96005.00
2018-06-23T16:10:47.719Z,95992.00
2018-06-23T16:13:17.319Z,95991.00
2018-06-23T16:15:47.311Z,95986.00
2018-06-23T16:18:19.590Z,95997.00
2018-06-23T16:20:49.368Z,95990.00
2018-06-23T16:23:24.118Z,95986.00
2018-06-23T16:25:54.530Z,95986.00
2018-06-23T16:28:24.652Z,95980.00
2018-06-23T16:30:54.182Z,95977.00
2018-06-23T16:33:23.787Z,95974.00
2018-06-23T16:35:54.024Z,95978.00
2018-06-23T16:38:24.096Z,95982.00
2018-06-23T16:40:54.578Z,95983.00
2018-06-23T16:43:24.916Z,95984.00
2018-06-23T16:55:48.230Z,95981.00
2018-06-23T16:58:28.408Z,95979.00
2018-06-23T17:00:59.128Z,95964.00
2018-06-23T17:03:37.859Z,95971.00
2018-06-23T17:06:17.227Z,95986.00
2018-06-23T17:08:48.123Z,95978.00
2018-06-23T17:11:20.339Z,95977.00
2018-06-23T17:13:53.897Z,95978.00
2018-06-23T17:16:25.611Z,95975.00
2018-06-23T17:18:57.247Z,95974.00
2018-06-23T17:31:07.517Z,95972.00
2018-06-23T17:33:38.922Z,95978.00
2018-06-23T17:36:09.296Z,95981.00
2018-06-23T17:38:38.968Z,95977.00
2018-06-23T17:41:08.717Z,95980.00
2018-06-23T17:43:41.187Z,95979.00
2018-06-23T17:46:11.711Z,95979.00
2018-06-23T17:48:47.066Z,95982.00
2018-06-23T17:51:30.193Z,95988.00
2018-06-23T17:54:02.044Z,95981.00
2018-06-23T17:56:35.047Z,95989.00
2018-06-23T17:59:05.744Z,95996.00
2018-06-23T18:01:41.371Z,95990.00
2018-06-23T18:04:11.128Z,95995.00
2018-06-23T18:06:40.776Z,96006.00
2018-06-23T18:09:11.482Z,96008.00
2018-06-23T18:11:52.011Z,95994.00
2018-06-23T18:14:31.073Z,95998.00
2018-06-23T18:17:05.493Z,96005.00
2018-06-23T18:22:37.856Z,96002.00
2018-06-23T18:35:43.201Z,96005.00
2018-06-23T18:38:13.070Z,96006.00
2018-06-23T18:40:42.647Z,96002.00
2018-06-23T18:43:13.284Z,95999.00
2018-06-23T18:45:42.841Z,95997.00
2018-06-23T18:48:14.574Z,95996.00
2018-06-23T18:50:45.022Z,95997.00
2018-06-23T18:53:14.552Z,95990.00
2018-06-23T18:55:44.469Z,95996.00
2018-06-23T19:01:18.351Z,95998.00
2018-06-23T19:03:48.168Z,95992.00
2018-06-23T19:06:18.273Z,95992.00
2018-06-23T19:08:49.154Z,96001.00
2018-06-23T19:11:19.235Z,95999.00
2018-06-23T19:13:52.171Z,95998.00
2018-06-23T19:16:22.528Z,96005.00
2018-06-23T19:18:52.019Z,96008.00
2018-06-23T19:21:21.628Z,96015.00
2018-06-23T19:23:51.037Z,96016.00
2018-06-23T19:26:24.938Z,96019.00
2018-06-23T19:28:56.426Z,96015.00
2018-06-23T19:31:25.955Z,96015.00
2018-06-23T19:33:55.552Z,96020.00
2018-06-23T19:36:25.175Z,96025.00
2018-06-23T19:38:55.013Z,96022.00
2018-06-23T19:41:29.652Z,96020.00
2018-06-23T19:44:00.748Z,96019.00
2018-06-23T19:46:33.497Z,96022.00
2018-06-23T19:49:10.399Z,96023.00
2018-06-23T19:51:47.020Z,96030.00
2018-06-23T19:54:25.513Z,96029.00
2018-06-23T19:56:55.147Z,96023.00
2018-06-23T19:59:24.810Z,96028.00
2018-06-23T20:01:54.335Z,96033.00
2018-06-23T20:04:23.988Z,96031.00
2018-06-23T20:06:53.463Z,96035.00
2018-06-23T20:09:23.063Z,96039.00
2018-06-23T20:11:53.220Z,96041.00
2018-06-23T20:14:22.843Z,96038.00
2018-06-23T20:16:52.345Z,96029.00
2018-06-23T20:19:21.827Z,96032.00
2018-06-23T20:21:52.085Z,96040.00
2018-06-23T20:24:22.700Z,96038.00
2018-06-23T20:26:53.134Z,96040.00
2018-06-23T20:29:23.058Z,96040.00
2018-06-23T20:31:53.344Z,96037.00
2018-06-23T20:34:22.809Z,96040.00
2018-06-23T20:36:52.211Z,96044.00
2018-06-23T20:39:21.686Z,96045.00
2018-06-23T20:41:51.203Z,96041.00
2018-06-23T20:44:20.730Z,96043.00
2018-06-23T20:46:50.286Z,96048.00
2018-06-23T20:49:21.074Z,96043.00
2018-06-23T20:51:50.615Z,96041.00
2018-06-23T20:54:20.258Z,96043.00
2018-06-23T20:56:49.875Z,96044.00
2018-06-23T20:59:19.411Z,96041.00
2018-06-23T21:01:50.209Z,96044.00
2018-06-23T21:04:20.418Z,96043.00
2018-06-23T21:06:49.863Z,96053.00
2018-06-23T21:09:19.367Z,96055.00
2018-06-23T21:11:50.619Z,96049.00
2018-06-23T21:14:20.197Z,96044.00
2018-06-23T21:16:51.481Z,96047.00
2018-06-23T21:19:21.076Z,96050.00
2018-06-23T21:21:50.699Z,96050.00
2018-06-23T21:24:20.265Z,96054.00
2018-06-23T21:26:49.775Z,96050.00
2018-06-23T21:29:19.629Z,96051.00
2018-06-23T21:31:50.607Z,96048.00
2018-06-23T21:34:21.456Z,96049.00
2018-06-23T21:36:51.525Z,96043.00
2018-06-23T21:39:21.494Z,96043.00
2018-06-23T21:41:51.210Z,96052.00
2018-06-23T21:44:20.416Z,96050.00
2018-06-23T21:46:50.090Z,96053.00
2018-06-23T21:49:20.883Z,96050.00
2018-06-23T21:51:50.446Z,96051.00
2018-06-23T21:54:19.988Z,96048.00
2018-06-23T21:56:49.495Z,96051.00
2018-06-23T21:59:19.448Z,96046.00
2018-06-23T22:01:49.118Z,96050.00
2018-06-23T22:04:19.566Z,96047.00
2018-06-23T22:06:49.134Z,96044.00
2018-06-23T22:09:18.394Z,96052.00
2018-06-23T22:11:47.986Z,96058.00
2018-06-23T22:14:17.467Z,96050.00
2018-06-23T22:16:47.219Z,96051.00
2018-06-23T22:19:16.735Z,96052.00
2018-06-23T22:21:46.179Z,96056.00
2018-06-23T22:24:15.555Z,96050.00
2018-06-23T22:26:45.173Z,96060.00
2018-06-23T22:29:14.248Z,96057.00
2018-06-23T22:31:43.635Z,96053.00
2018-06-23T22:34:13.096Z,96060.00
2018-06-23T22:36:42.603Z,96057.00
2018-06-23T22:39:13.098Z,96044.00
2018-06-23T22:41:42.554Z,96052.00
2018-06-23T22:44:11.939Z,96044.00
2018-06-23T22:46:41.408Z,96048.00
2018-06-23T22:49:10.956Z,96045.00
2018-06-23T22:51:40.334Z,96048.00
2018-06-23T22:54:09.821Z,96048.00
2018-06-23T22:56:39.389Z,96046.00
2018-06-23T22:59:08.883Z,96039.00
2018-06-23T23:01:38.321Z,96036.00
2018-06-23T23:04:07.705Z,96036.00
2018-06-23T23:06:37.143Z,96035.00
2018-06-23T23:09:10.712Z,96034.00
2018-06-23T23:11:40.167Z,96033.00
2018-06-23T23:14:10.063Z,96037.00
2018-06-23T23:16:39.575Z,96037.00
2018-06-23T23:19:09.024Z,96042.00
2018-06-23T23:21:38.491Z,96046.00
2018-06-23T23:24:07.918Z,96042.00
2018-06-23T23:26:37.644Z,96041.00
2018-06-23T23:29:07.216Z,96040.00
2018-06-23T23:31:36.641Z,96041.00
2018-06-23T23:34:06.336Z,96037.00
2018-06-23T23:36:35.724Z,96034.00
2018-06-23T23:39:07.932Z,96030.00
2018-06-23T23:41:37.432Z,96040.00
2018-06-23T23:44:06.900Z,96033.00
2018-06-23T23:46:36.604Z,96032.00
2018-06-23T23:49:06.009Z,96034.00
2018-06-23T23:51:35.387Z,96027.00
2018-06-23T23:54:04.786Z,96041.00
2018-06-23T23:56:34.148Z,96036.00
2018-06-23T23:59:03.632Z,96030.00
